createdAt,value
2023-01-17T00:00:32.893Z,3.69
2023-01-17T00:02:59.527Z,3.64
2023-01-17T00:05:44.570Z,3.46
2023-01-17T00:08:32.400Z,3.40
2023-01-17T00:10:59.287Z,3.08
2023-01-17T00:13:25.717Z,2.85
2023-01-17T00:15:52.357Z,2.65
2023-01-17T00:18:18.988Z,2.65
2023-01-17T00:21:04.143Z,2.57
2023-01-17T00:23:49.003Z,2.51
2023-01-17T00:26:19.571Z,2.56
2023-01-17T00:28:46.625Z,2.53
2023-01-17T00:31:14.970Z,2.56
2023-01-17T00:33:41.541Z,2.61
2023-01-17T00:36:09.475Z,2.73
2023-01-17T00:38:37.945Z,2.80
2023-01-17T00:41:10.059Z,2.94
2023-01-17T00:43:55.200Z,3.01
2023-01-17T00:46:40.816Z,3.09
2023-01-17T00:49:25.897Z,3.13
2023-01-17T00:52:11.341Z,3.22
2023-01-17T00:54:57.890Z,3.38
2023-01-17T01:00:54.291Z,3.43
2023-01-17T01:03:39.607Z,3.49
2023-01-17T01:06:24.954Z,3.50
2023-01-17T01:09:10.479Z,3.48
2023-01-17T01:11:55.347Z,3.42
2023-01-17T01:14:40.225Z,3.23
2023-01-17T01:17:25.134Z,3.18
2023-01-17T01:20:10.238Z,2.88
2023-01-17T01:22:55.412Z,2.95
2023-01-17T01:25:40.473Z,3.02
2023-01-17T01:28:30.421Z,3.02
2023-01-17T01:31:18.894Z,3.08
2023-01-17T01:33:45.352Z,3.16
2023-01-17T01:36:12.014Z,3.20
2023-01-17T01:38:38.677Z,3.26
2023-01-17T01:41:05.844Z,3.33
2023-01-17T01:43:43.407Z,3.33
2023-01-17T01:46:18.358Z,3.42
2023-01-17T01:48:48.620Z,3.40
2023-01-17T01:51:21.767Z,3.40
2023-01-17T01:53:52.507Z,3.39
2023-01-17T01:56:22.515Z,3.40
2023-01-17T01:58:52.231Z,3.43
2023-01-17T02:01:19.066Z,3.42
2023-01-17T02:03:46.439Z,3.43
2023-01-17T02:06:35.046Z,3.43
2023-01-17T02:09:07.768Z,3.38
2023-01-17T02:11:37.390Z,3.39
2023-01-17T02:14:04.396Z,3.33
2023-01-17T02:16:47.583Z,3.30
2023-01-17T02:19:23.041Z,3.30
2023-01-17T02:22:15.398Z,3.30
2023-01-17T02:25:03.739Z,3.28
2023-01-17T02:27:45.131Z,3.29
2023-01-17T02:30:32.566Z,3.33
2023-01-17T02:33:20.354Z,3.32
2023-01-17T02:36:18.265Z,3.38
2023-01-17T02:39:05.158Z,3.36
2023-01-17T02:41:37.252Z,3.38
2023-01-17T02:44:04.354Z,3.35
2023-01-17T02:46:30.833Z,3.30
2023-01-17T02:48:58.364Z,3.32
2023-01-17T02:51:53.725Z,3.25
2023-01-17T02:54:56.868Z,3.08
2023-01-17T02:58:03.680Z,3.07
2023-01-17T03:00:58.056Z,2.91
2023-01-17T03:03:44.439Z,2.87
2023-01-17T03:06:22.520Z,2.83
2023-01-17T03:08:50.964Z,2.87
2023-01-17T03:11:18.963Z,2.77
2023-01-17T03:13:45.430Z,2.71
2023-01-17T03:16:19.680Z,2.61
2023-01-17T03:18:46.233Z,2.54
2023-01-17T03:21:12.743Z,2.44
2023-01-17T03:23:39.181Z,2.50
2023-01-17T03:26:05.812Z,2.43
2023-01-17T03:28:32.222Z,2.46
2023-01-17T03:30:58.689Z,2.51
2023-01-17T03:33:25.418Z,2.57
2023-01-17T03:35:52.794Z,2.60
2023-01-17T03:38:19.438Z,2.64
2023-01-17T03:40:45.784Z,2.68
2023-01-17T03:43:12.371Z,2.83
2023-01-17T03:45:38.808Z,2.88
2023-01-17T03:48:06.213Z,2.85
2023-01-17T03:50:32.667Z,2.87
2023-01-17T03:52:59.069Z,2.88
2023-01-17T03:55:25.599Z,2.85
2023-01-17T03:57:52.130Z,2.91
2023-01-17T04:00:18.803Z,2.94
2023-01-17T04:02:45.257Z,2.94
2023-01-17T04:05:11.733Z,2.90
2023-01-17T04:07:38.110Z,2.95
2023-01-17T04:10:05.185Z,2.91
2023-01-17T04:12:31.638Z,2.91
2023-01-17T04:14:58.169Z,2.84
2023-01-17T04:17:24.860Z,2.90
2023-01-17T04:19:51.452Z,2.80
2023-01-17T04:22:17.875Z,2.83
2023-01-17T04:24:44.347Z,2.85
2023-01-17T04:27:14.218Z,2.81
2023-01-17T04:29:40.721Z,2.83
2023-01-17T04:32:07.246Z,2.85
2023-01-17T04:34:33.679Z,2.80
2023-01-17T04:37:00.042Z,2.85
2023-01-17T04:39:26.715Z,2.92
2023-01-17T04:41:53.254Z,2.87
2023-01-17T04:44:19.700Z,2.85
2023-01-17T04:46:46.086Z,2.91
2023-01-17T04:49:12.462Z,2.90
2023-01-17T04:51:38.864Z,2.92
2023-01-17T04:54:05.308Z,2.85
2023-01-17T04:56:31.736Z,2.88
2023-01-17T04:58:58.299Z,2.83
2023-01-17T05:01:25.080Z,2.76
2023-01-17T05:03:51.520Z,2.71
2023-01-17T05:06:17.960Z,2.64
2023-01-17T05:08:44.616Z,2.43
2023-01-17T05:11:11.455Z,2.39
2023-01-17T05:13:37.866Z,2.41
2023-01-17T05:16:04.577Z,2.37
2023-01-17T05:18:31.153Z,2.33
2023-01-17T05:21:04.463Z,2.34
2023-01-17T05:23:32.899Z,2.32
2023-01-17T05:25:59.364Z,2.36
2023-01-17T05:28:25.791Z,2.32
2023-01-17T05:30:52.353Z,2.39
2023-01-17T05:33:18.831Z,2.46
2023-01-17T05:35:45.251Z,2.49
2023-01-17T05:38:11.675Z,2.49
2023-01-17T05:40:38.076Z,2.46
2023-01-17T05:43:04.663Z,2.49
2023-01-17T05:45:33.278Z,2.53
2023-01-17T05:48:00.436Z,2.54
2023-01-17T05:50:30.805Z,2.56
2023-01-17T05:53:00.065Z,2.51
2023-01-17T05:55:28.240Z,2.49
2023-01-17T05:57:56.164Z,2.46
2023-01-17T06:00:23.378Z,2.60
2023-01-17T06:02:52.294Z,2.53
2023-01-17T06:05:18.785Z,2.50
2023-01-17T06:07:46.237Z,2.56
2023-01-17T06:10:17.262Z,2.43
2023-01-17T06:12:44.898Z,2.46
2023-01-17T06:15:12.658Z,2.46
2023-01-17T06:17:39.098Z,2.44
2023-01-17T06:20:10.303Z,2.49
2023-01-17T06:22:37.043Z,2.43
2023-01-17T06:25:05.866Z,2.43
2023-01-17T06:27:32.330Z,2.43
2023-01-17T06:29:58.707Z,2.39
2023-01-17T06:32:25.088Z,2.44
2023-01-17T06:34:51.930Z,2.39
2023-01-17T06:37:18.360Z,2.39
2023-01-17T06:39:44.972Z,2.37
2023-01-17T06:42:12.821Z,2.32
2023-01-17T06:44:41.545Z,2.32
2023-01-17T06:47:08.005Z,2.30
2023-01-17T06:49:34.986Z,2.28
2023-01-17T06:52:01.808Z,2.29
2023-01-17T06:54:28.267Z,2.37
2023-01-17T06:56:54.837Z,2.36
2023-01-17T06:59:21.425Z,2.37
2023-01-17T07:01:49.034Z,2.34
2023-01-17T07:04:15.418Z,2.37
2023-01-17T07:06:41.904Z,2.37
2023-01-17T07:09:08.382Z,2.32
2023-01-17T07:11:34.890Z,2.30
2023-01-17T07:14:01.438Z,2.41
2023-01-17T07:16:27.899Z,2.40
2023-01-17T07:18:56.926Z,2.37
2023-01-17T07:21:23.435Z,2.39
2023-01-17T07:23:49.811Z,2.34
2023-01-17T07:26:17.430Z,2.28
2023-01-17T07:28:44.051Z,2.22
2023-01-17T07:32:37.194Z,2.23
2023-01-17T07:35:03.906Z,2.28
2023-01-17T07:37:30.298Z,2.25
2023-01-17T07:39:56.677Z,2.13
2023-01-17T07:42:24.355Z,2.18
2023-01-17T07:44:51.040Z,2.16
2023-01-17T07:47:17.639Z,2.10
2023-01-17T07:49:44.056Z,2.06
2023-01-17T07:52:10.461Z,2.13
2023-01-17T07:54:36.985Z,2.26
2023-01-17T07:57:03.792Z,2.23
2023-01-17T07:59:30.324Z,2.26
2023-01-17T08:01:56.830Z,2.26
2023-01-17T08:04:26.518Z,2.09
2023-01-17T08:06:54.823Z,2.12
2023-01-17T08:09:21.381Z,2.09
2023-01-17T08:11:47.828Z,2.05
2023-01-17T08:14:14.206Z,2.06
2023-01-17T08:16:40.627Z,1.99
2023-01-17T08:19:07.068Z,2.06
2023-01-17T08:21:33.480Z,1.95
2023-01-17T08:23:59.925Z,2.15
2023-01-17T08:26:27.272Z,2.18
2023-01-17T08:29:00.668Z,2.20
2023-01-17T08:31:32.628Z,2.70
2023-01-17T08:33:59.084Z,2.78
2023-01-17T08:36:26.131Z,2.85
2023-01-17T08:38:53.186Z,3.01
2023-01-17T08:41:21.052Z,3.12
2023-01-17T08:43:51.728Z,3.11
2023-01-17T08:46:18.395Z,2.81
2023-01-17T08:48:45.301Z,2.76
2023-01-17T08:51:11.917Z,2.65
2023-01-17T08:53:38.386Z,2.85
2023-01-17T08:56:05.616Z,2.77
2023-01-17T08:58:32.593Z,2.81
2023-01-17T09:01:03.656Z,3.02
2023-01-17T09:03:31.020Z,3.23
2023-01-17T09:06:09.680Z,3.33
2023-01-17T09:08:36.153Z,3.86
2023-01-17T09:11:06.821Z,3.71
2023-01-17T09:13:33.239Z,3.64
2023-01-17T09:16:00.543Z,3.36
2023-01-17T09:18:28.396Z,3.78
2023-01-17T09:20:59.090Z,3.73
2023-01-17T09:23:27.620Z,4.01
2023-01-17T09:25:55.960Z,3.69
2023-01-17T09:28:23.226Z,3.57
2023-01-17T09:30:50.069Z,4.02
2023-01-17T09:33:17.769Z,4.05
2023-01-17T09:35:45.734Z,3.99
2023-01-17T09:38:13.927Z,3.83
2023-01-17T09:40:45.871Z,3.80
2023-01-17T09:43:54.446Z,3.97
2023-01-17T09:46:29.663Z,4.08
2023-01-17T09:49:06.614Z,3.66
2023-01-17T09:51:33.247Z,3.62
2023-01-17T09:54:00.431Z,3.94
2023-01-17T09:56:31.777Z,4.15
2023-01-17T09:59:32.724Z,3.62
2023-01-17T10:02:20.293Z,3.66
2023-01-17T10:05:08.835Z,3.87
2023-01-17T10:07:41.777Z,3.55
2023-01-17T10:10:19.172Z,3.60
2023-01-17T10:13:10.255Z,3.86
2023-01-17T10:16:07.593Z,3.78
2023-01-17T10:19:13.008Z,3.93
2023-01-17T10:22:11.434Z,4.04
2023-01-17T10:25:16.472Z,4.11
2023-01-17T10:27:55.351Z,3.66
2023-01-17T10:30:29.724Z,3.97
2023-01-17T10:32:59.863Z,3.83
2023-01-17T10:35:32.335Z,3.78
2023-01-17T10:38:03.974Z,4.25
2023-01-17T10:40:44.688Z,4.22
2023-01-17T10:43:31.357Z,4.53
2023-01-17T10:45:57.916Z,5.44
2023-01-17T10:48:41.828Z,5.52
2023-01-17T10:51:49.955Z,6.71
2023-01-17T10:54:27.442Z,7.91
2023-01-17T10:56:54.149Z,8.78
2023-01-17T10:59:34.227Z,9.36
2023-01-17T11:02:07.289Z,9.46
2023-01-17T11:04:41.876Z,9.83
2023-01-17T11:07:28.361Z,11.03
2023-01-17T11:09:56.869Z,9.97
2023-01-17T11:12:26.422Z,10.87
2023-01-17T11:15:19.900Z,11.10
2023-01-17T11:18:00.359Z,12.05
2023-01-17T11:20:35.111Z,11.86
2023-01-17T11:23:23.152Z,12.48
2023-01-17T11:26:05.970Z,12.76
2023-01-17T11:28:34.987Z,11.96
2023-01-17T11:31:05.047Z,12.27
2023-01-17T11:33:47.675Z,12.53
2023-01-17T11:36:23.453Z,12.99
2023-01-17T11:39:05.194Z,13.56
2023-01-17T11:41:37.661Z,13.23
2023-01-17T11:44:20.860Z,12.92
2023-01-17T11:46:47.528Z,13.26
2023-01-17T11:49:25.332Z,13.80
2023-01-17T11:51:56.546Z,13.88
2023-01-17T11:54:39.329Z,13.84
2023-01-17T11:57:16.589Z,13.54
2023-01-17T11:59:44.399Z,12.72
2023-01-17T12:02:35.669Z,12.99
2023-01-17T12:05:18.314Z,12.03
2023-01-17T12:07:56.430Z,12.16
2023-01-17T12:10:36.590Z,12.00
2023-01-17T12:13:27.910Z,11.17
2023-01-17T12:16:31.765Z,12.14
2023-01-17T12:19:01.297Z,12.50
2023-01-17T12:21:53.943Z,12.61
2023-01-17T12:24:58.350Z,12.92
2023-01-17T12:27:32.087Z,12.86
2023-01-17T12:30:15.231Z,12.65
2023-01-17T12:32:44.671Z,12.13
2023-01-17T12:35:14.627Z,11.63
2023-01-17T12:37:44.759Z,11.48
2023-01-17T12:40:17.152Z,12.09
2023-01-17T12:43:00.952Z,11.62
2023-01-17T12:45:38.863Z,12.06
2023-01-17T12:48:15.743Z,12.58
2023-01-17T12:50:52.990Z,13.02
2023-01-17T12:53:47.989Z,13.13
2023-01-17T12:56:24.875Z,12.47
2023-01-17T12:58:56.053Z,12.46
2023-01-17T13:01:29.987Z,12.78
2023-01-17T13:04:25.299Z,12.44
2023-01-17T13:07:16.415Z,12.64
2023-01-17T13:09:51.300Z,11.95
2023-01-17T13:12:20.983Z,10.60
2023-01-17T13:14:48.998Z,10.99
2023-01-17T13:17:21.567Z,11.42
2023-01-17T13:20:23.092Z,12.06
2023-01-17T13:22:51.660Z,12.06
2023-01-17T13:25:33.133Z,12.51
2023-01-17T13:28:18.440Z,12.53
2023-01-17T13:30:57.342Z,11.90
2023-01-17T13:33:28.463Z,11.81
2023-01-17T13:36:15.416Z,11.45
2023-01-17T13:38:57.645Z,10.99
2023-01-17T13:41:45.155Z,10.60
2023-01-17T13:44:26.881Z,10.20
2023-01-17T13:47:08.056Z,9.95
2023-01-17T13:49:43.262Z,9.71
2023-01-17T13:52:33.278Z,9.22
2023-01-17T13:55:02.939Z,9.63
2023-01-17T13:57:31.504Z,9.89
2023-01-17T14:00:00.152Z,9.35
2023-01-17T14:02:32.870Z,9.05
2023-01-17T14:05:47.635Z,8.92
2023-01-17T14:08:17.353Z,9.10
2023-01-17T14:10:47.414Z,9.40
2023-01-17T14:13:36.973Z,9.42
2023-01-17T14:16:24.235Z,9.64
2023-01-17T14:18:52.203Z,9.57
2023-01-17T14:21:25.086Z,9.52
2023-01-17T14:23:58.566Z,9.87
2023-01-17T14:26:32.879Z,9.42
2023-01-17T14:29:38.033Z,9.18
2023-01-17T14:32:10.538Z,8.94
2023-01-17T14:34:37.380Z,8.60
2023-01-17T14:37:35.612Z,8.25
2023-01-17T14:40:02.455Z,7.93
2023-01-17T14:42:31.815Z,7.58
2023-01-17T14:45:09.414Z,7.50
2023-01-17T14:47:40.060Z,7.33
2023-01-17T14:50:21.896Z,7.48
2023-01-17T14:53:06.417Z,7.54
2023-01-17T14:55:32.912Z,7.78
2023-01-17T14:57:59.420Z,8.05
2023-01-17T15:00:30.021Z,7.89
2023-01-17T15:02:59.277Z,7.85
2023-01-17T15:05:27.716Z,7.67
2023-01-17T15:07:56.437Z,7.63
2023-01-17T15:10:29.905Z,7.68
2023-01-17T15:12:58.871Z,7.65
2023-01-17T15:15:35.045Z,7.43
2023-01-17T15:18:08.143Z,7.30
2023-01-17T15:20:35.950Z,7.13
2023-01-17T15:23:02.981Z,6.85
2023-01-17T15:25:30.686Z,6.74
2023-01-17T15:27:57.547Z,6.52
2023-01-17T15:30:25.382Z,6.40
2023-01-17T15:32:52.465Z,6.37
2023-01-17T15:35:19.982Z,6.24
2023-01-17T15:37:52.952Z,6.00
2023-01-17T15:40:26.614Z,5.80
2023-01-17T15:42:57.980Z,5.59
2023-01-17T15:45:30.399Z,5.51
2023-01-17T15:47:59.201Z,5.27
2023-01-17T15:50:31.322Z,5.17
2023-01-17T15:53:06.861Z,4.98
2023-01-17T15:55:35.947Z,4.88
2023-01-17T15:58:04.998Z,4.90
2023-01-17T16:00:41.909Z,4.77
2023-01-17T16:03:30.836Z,4.66
2023-01-17T16:06:00.515Z,4.53
2023-01-17T16:08:40.088Z,4.28
2023-01-17T16:11:11.501Z,4.49
2023-01-17T16:13:43.468Z,4.15
2023-01-17T16:16:12.707Z,4.22
2023-01-17T16:18:40.304Z,3.98
2023-01-17T16:21:26.069Z,3.95
2023-01-17T16:23:53.031Z,3.74
2023-01-17T16:26:20.051Z,3.67
2023-01-17T16:28:47.102Z,3.59
2023-01-17T16:31:15.800Z,3.46
2023-01-17T16:33:42.400Z,3.50
2023-01-17T16:36:16.470Z,3.38
2023-01-17T16:38:44.918Z,3.38
2023-01-17T16:41:11.619Z,3.43
2023-01-17T16:43:38.197Z,3.44
2023-01-17T16:46:06.073Z,3.23
2023-01-17T16:48:32.541Z,3.20
2023-01-17T16:50:59.360Z,3.13
2023-01-17T16:53:28.660Z,2.97
2023-01-17T16:55:57.972Z,3.09
2023-01-17T16:58:24.773Z,2.95
2023-01-17T17:00:51.537Z,2.84
2023-01-17T17:03:19.883Z,2.65
2023-01-17T17:05:58.571Z,2.73
2023-01-17T17:08:25.402Z,2.50
2023-01-17T17:10:52.144Z,2.46
2023-01-17T17:13:18.632Z,2.47
2023-01-17T17:15:45.541Z,2.49
2023-01-17T17:18:17.132Z,2.37
2023-01-17T17:20:44.622Z,2.28
2023-01-17T17:23:11.160Z,2.30
2023-01-17T17:25:38.381Z,2.33
2023-01-17T17:28:05.963Z,2.22
2023-01-17T17:30:33.296Z,2.19
2023-01-17T17:32:59.949Z,2.10
2023-01-17T17:35:26.770Z,2.02
2023-01-17T17:37:53.829Z,1.97
2023-01-17T17:40:20.589Z,1.97
2023-01-17T17:42:49.875Z,1.86
2023-01-17T17:45:16.545Z,1.88
2023-01-17T17:47:43.962Z,1.91
2023-01-17T17:50:10.921Z,1.81
2023-01-17T17:52:38.054Z,1.68
2023-01-17T17:55:04.885Z,1.68
2023-01-17T17:57:31.475Z,1.65
2023-01-17T17:59:59.711Z,1.61
2023-01-17T18:02:27.303Z,1.58
2023-01-17T18:04:53.805Z,1.55
2023-01-17T18:07:20.676Z,1.57
2023-01-17T18:09:47.331Z,1.55
2023-01-17T18:12:13.830Z,1.47
2023-01-17T18:14:40.301Z,1.43
2023-01-17T18:17:06.786Z,1.40
2023-01-17T18:19:33.180Z,1.37
2023-01-17T18:21:59.655Z,1.34
2023-01-17T18:24:28.689Z,1.22
2023-01-17T18:26:57.676Z,1.20
2023-01-17T18:29:25.694Z,1.27
2023-01-17T18:31:53.202Z,1.40
2023-01-17T18:34:23.922Z,1.30
2023-01-17T18:36:52.133Z,1.36
2023-01-17T18:39:29.321Z,1.24
2023-01-17T18:41:55.763Z,1.22
2023-01-17T18:44:22.836Z,1.15
2023-01-17T18:46:50.465Z,1.13
2023-01-17T18:49:19.246Z,1.10
2023-01-17T18:51:50.981Z,1.02
2023-01-17T18:57:36.086Z,1.07
2023-01-17T19:00:04.049Z,0.97
2023-01-17T19:02:30.727Z,0.82
2023-01-17T19:04:57.172Z,0.71
2023-01-17T19:07:28.933Z,0.71
2023-01-17T19:09:55.422Z,0.66
2023-01-17T19:12:21.875Z,0.66
2023-01-17T19:14:48.435Z,0.81
2023-01-17T19:17:14.894Z,0.58
2023-01-17T19:19:41.286Z,0.64
2023-01-17T19:22:07.945Z,0.52
2023-01-17T19:24:35.619Z,0.55
2023-01-17T19:27:02.612Z,0.48
2023-01-17T19:29:29.147Z,0.45
2023-01-17T19:31:55.625Z,0.60
2023-01-17T19:34:22.374Z,0.54
2023-01-17T19:36:49.172Z,0.64
2023-01-17T19:39:15.743Z,0.48
2023-01-17T19:41:44.528Z,0.36
2023-01-17T19:44:13.125Z,0.24
2023-01-17T19:46:39.748Z,0.30
2023-01-17T19:49:08.406Z,0.25
2023-01-17T19:51:35.862Z,0.13
2023-01-17T19:54:03.898Z,0.17
2023-01-17T19:56:30.608Z,0.15
2023-01-17T19:59:00.880Z,0.23
2023-01-17T20:01:30.112Z,0.17
2023-01-17T20:03:58.366Z,0.17
2023-01-17T20:06:27.913Z,0.14
2023-01-17T20:08:55.177Z,0.06
2023-01-17T20:11:23.811Z,0.18
2023-01-17T20:13:55.608Z,0.09
2023-01-17T20:16:23.196Z,0.07
2023-01-17T20:18:50.849Z,0.06
2023-01-17T20:21:20.235Z,0.00
2023-01-17T20:23:47.866Z,-0.03
2023-01-17T20:26:20.380Z,0.07
2023-01-17T20:28:49.204Z,0.11
2023-01-17T20:31:23.605Z,0.10
2023-01-17T20:33:52.074Z,0.13
2023-01-17T20:36:21.169Z,-0.03
2023-01-17T20:38:48.651Z,0.03
2023-01-17T20:41:23.921Z,0.00
2023-01-17T20:43:55.322Z,0.02
2023-01-17T20:46:24.936Z,0.11
2023-01-17T20:48:56.313Z,0.13
2023-01-17T20:51:25.075Z,-0.06
2023-01-17T20:53:57.424Z,0.04
2023-01-17T20:56:24.698Z,0.02
2023-01-17T20:58:54.794Z,-0.08
2023-01-17T21:01:24.374Z,-0.08
2023-01-17T21:03:53.661Z,-0.11
2023-01-17T21:06:21.752Z,-0.17
2023-01-17T21:08:49.095Z,-0.21
2023-01-17T21:11:18.740Z,-0.21
2023-01-17T21:13:45.628Z,-0.27
2023-01-17T21:16:14.019Z,-0.27
2023-01-17T21:18:41.378Z,-0.32
2023-01-17T21:21:24.175Z,-0.31
2023-01-17T21:23:57.449Z,-0.38
2023-01-17T21:26:32.685Z,-0.35
2023-01-17T21:29:01.415Z,-0.32
2023-01-17T21:31:35.743Z,-0.29
2023-01-17T21:34:05.949Z,-0.11
2023-01-17T21:36:38.521Z,-0.04
2023-01-17T21:39:08.753Z,-0.27
2023-01-17T21:41:45.827Z,-0.18
2023-01-17T21:44:15.287Z,-0.21
2023-01-17T21:46:42.276Z,-0.21
2023-01-17T21:49:12.176Z,-0.28
2023-01-17T21:51:52.799Z,-0.31
2023-01-17T21:54:59.360Z,-0.37
2023-01-17T21:57:45.013Z,-0.34
2023-01-17T22:00:16.818Z,-0.27
2023-01-17T22:02:45.049Z,-0.25
2023-01-17T22:05:12.180Z,-0.44
2023-01-17T22:08:01.712Z,-0.34
2023-01-17T22:10:28.489Z,-0.48
2023-01-17T22:12:55.215Z,-0.54
2023-01-17T22:15:21.671Z,-0.51
2023-01-17T22:17:48.054Z,-0.25
2023-01-17T22:20:14.717Z,-0.19
2023-01-17T22:22:41.180Z,-0.48
2023-01-17T22:25:09.585Z,-0.48
2023-01-17T22:27:36.992Z,-0.59
2023-01-17T22:30:03.951Z,-0.56
2023-01-17T22:32:30.819Z,-0.61
2023-01-17T22:35:00.265Z,-0.64
2023-01-17T22:37:26.760Z,-0.77
2023-01-17T22:39:53.339Z,-0.61
2023-01-17T22:42:20.079Z,-0.59
2023-01-17T22:44:47.994Z,-0.55
2023-01-17T22:47:14.457Z,-0.69
2023-01-17T22:49:40.867Z,-0.73
2023-01-17T22:52:07.279Z,-0.77
2023-01-17T22:54:33.750Z,-0.77
2023-01-17T22:57:00.412Z,-0.89
2023-01-17T22:59:26.834Z,-0.92
2023-01-17T23:01:53.758Z,-0.89
2023-01-17T23:04:20.232Z,-0.93
2023-01-17T23:06:46.607Z,-0.89
2023-01-17T23:09:15.331Z,-0.96
2023-01-17T23:11:49.623Z,-0.97
2023-01-17T23:14:29.523Z,-0.96
2023-01-17T23:17:17.917Z,-0.92
2023-01-17T23:19:49.564Z,-0.95
2023-01-17T23:22:26.601Z,-0.79
2023-01-17T23:24:55.991Z,-0.68
2023-01-17T23:27:42.753Z,-0.72
2023-01-17T23:30:37.350Z,-0.85
2023-01-17T23:33:16.582Z,-0.92
2023-01-17T23:35:45.308Z,-0.93
2023-01-17T23:38:33.791Z,-0.95
2023-01-17T23:41:27.299Z,-1.08
2023-01-17T23:43:55.791Z,-1.04
2023-01-17T23:46:23.820Z,-1.17
2023-01-17T23:48:50.667Z,-1.11
2023-01-17T23:51:17.238Z,-1.08
2023-01-17T23:53:43.795Z,-0.97
2023-01-17T23:56:17.061Z,-0.97
2023-01-17T23:58:43.534Z,-0.99
